sensor_id;sensor_type;location;lat;lon;timestamp;pressure;altitude;pressure_sealevel;temperature;humidity
6680;BME280;3376;42.664;23.346;2023-02-20T00:00:17;94818.38;;;11.38;68.05
6680;BME280;3376;42.664;23.346;2023-02-20T00:02:44;94830.22;;;11.32;67.78
6680;BME280;3376;42.664;23.346;2023-02-20T00:05:11;94836.53;;;11.38;67.64
6680;BME280;3376;42.664;23.346;2023-02-20T00:07:39;94840.44;;;11.34;70.19
6680;BME280;3376;42.664;23.346;2023-02-20T00:10:06;94836.91;;;11.27;68.53
6680;BME280;3376;42.664;23.346;2023-02-20T00:12:33;94836.56;;;11.30;68.97
6680;BME280;3376;42.664;23.346;2023-02-20T00:15:00;94838.69;;;11.26;70.16
6680;BME280;3376;42.664;23.346;2023-02-20T00:17:27;94845.31;;;11.29;70.08
6680;BME280;3376;42.664;23.346;2023-02-20T00:19:55;94832.25;;;11.22;69.49
6680;BME280;3376;42.664;23.346;2023-02-20T00:22:22;94847.56;;;11.32;69.41
6680;BME280;3376;42.664;23.346;2023-02-20T00:24:51;94832.41;;;11.21;70.40
6680;BME280;3376;42.664;23.346;2023-02-20T00:27:18;94824.50;;;11.14;70.81
6680;BME280;3376;42.664;23.346;2023-02-20T00:29:45;94836.16;;;11.18;71.22
6680;BME280;3376;42.664;23.346;2023-02-20T00:32:12;94835.69;;;11.15;71.29
6680;BME280;3376;42.664;23.346;2023-02-20T00:34:39;94830.31;;;11.16;71.55
6680;BME280;3376;42.664;23.346;2023-02-20T00:37:06;94826.94;;;11.16;72.36
6680;BME280;3376;42.664;23.346;2023-02-20T00:39:33;94838.78;;;11.10;72.26
6680;BME280;3376;42.664;23.346;2023-02-20T00:42:01;94816.66;;;11.00;73.87
6680;BME280;3376;42.664;23.346;2023-02-20T00:44:28;94820.84;;;11.01;73.21
6680;BME280;3376;42.664;23.346;2023-02-20T00:46:55;94821.84;;;11.00;73.54
6680;BME280;3376;42.664;23.346;2023-02-20T00:49:21;94830.16;;;10.87;74.60
6680;BME280;3376;42.664;23.346;2023-02-20T00:51:48;94840.03;;;10.92;73.60
6680;BME280;3376;42.664;23.346;2023-02-20T00:54:15;94827.91;;;10.84;74.78
6680;BME280;3376;42.664;23.346;2023-02-20T00:56:42;94846.22;;;10.83;74.48
6680;BME280;3376;42.664;23.346;2023-02-20T00:59:10;94841.34;;;10.88;74.48
6680;BME280;3376;42.664;23.346;2023-02-20T01:01:37;94855.31;;;10.79;75.15
6680;BME280;3376;42.664;23.346;2023-02-20T01:04:03;94853.56;;;10.71;74.97
6680;BME280;3376;42.664;23.346;2023-02-20T01:06:30;94864.41;;;10.66;74.95
6680;BME280;3376;42.664;23.346;2023-02-20T01:08:57;94867.66;;;10.68;75.94
6680;BME280;3376;42.664;23.346;2023-02-20T01:11:24;94865.75;;;10.62;75.51
6680;BME280;3376;42.664;23.346;2023-02-20T01:13:51;94878.34;;;10.65;76.05
6680;BME280;3376;42.664;23.346;2023-02-20T01:16:19;94872.56;;;10.55;76.21
6680;BME280;3376;42.664;23.346;2023-02-20T01:18:48;94817.97;;;10.10;76.13
6680;BME280;3376;42.664;23.346;2023-02-20T01:21:16;94877.25;;;10.44;77.41
6680;BME280;3376;42.664;23.346;2023-02-20T01:23:43;94856.06;;;10.40;76.93
6680;BME280;3376;42.664;23.346;2023-02-20T01:26:09;94870.47;;;10.43;77.07
6680;BME280;3376;42.664;23.346;2023-02-20T01:28:36;94889.75;;;10.48;78.38
6680;BME280;3376;42.664;23.346;2023-02-20T01:31:03;94885.38;;;10.41;77.93
6680;BME280;3376;42.664;23.346;2023-02-20T01:33:31;94895.56;;;10.50;79.61
6680;BME280;3376;42.664;23.346;2023-02-20T01:35:58;94839.50;;;10.11;78.28
6680;BME280;3376;42.664;23.346;2023-02-20T01:38:24;94893.47;;;10.54;78.16
6680;BME280;3376;42.664;23.346;2023-02-20T01:40:51;94895.53;;;10.58;77.73
6680;BME280;3376;42.664;23.346;2023-02-20T01:43:18;94874.50;;;10.53;77.99
6680;BME280;3376;42.664;23.346;2023-02-20T01:45:44;94884.34;;;10.66;78.23
6680;BME280;3376;42.664;23.346;2023-02-20T01:48:18;94898.41;;;10.72;77.76
6680;BME280;3376;42.664;23.346;2023-02-20T01:50:48;94911.69;;;10.68;78.92
6680;BME280;3376;42.664;23.346;2023-02-20T01:53:18;94907.19;;;10.62;79.38
6680;BME280;3376;42.664;23.346;2023-02-20T01:55:49;94889.69;;;10.64;79.22
6680;BME280;3376;42.664;23.346;2023-02-20T01:58:19;94895.34;;;10.68;79.65
6680;BME280;3376;42.664;23.346;2023-02-20T02:00:47;94894.25;;;10.54;79.93
6680;BME280;3376;42.664;23.346;2023-02-20T02:03:17;94913.03;;;10.56;80.81
6680;BME280;3376;42.664;23.346;2023-02-20T02:05:50;94905.75;;;10.52;81.57
6680;BME280;3376;42.664;23.346;2023-02-20T02:08:20;94904.97;;;10.35;82.51
6680;BME280;3376;42.664;23.346;2023-02-20T02:10:52;94906.56;;;10.44;81.26
6680;BME280;3376;42.664;23.346;2023-02-20T02:13:20;94901.09;;;10.39;83.21
6680;BME280;3376;42.664;23.346;2023-02-20T02:15:50;94905.97;;;10.26;82.46
6680;BME280;3376;42.664;23.346;2023-02-20T02:18:35;94902.75;;;10.16;82.76
6680;BME280;3376;42.664;23.346;2023-02-20T02:24:34;94910.16;;;9.95;82.49
6680;BME280;3376;42.664;23.346;2023-02-20T02:27:20;94901.13;;;9.75;82.45
6680;BME280;3376;42.664;23.346;2023-02-20T02:36:20;94935.84;;;9.73;82.05
6680;BME280;3376;42.664;23.346;2023-02-20T02:38:56;94898.97;;;9.46;81.44
6680;BME280;3376;42.664;23.346;2023-02-20T02:41:33;94929.88;;;9.64;82.42
6680;BME280;3376;42.664;23.346;2023-02-20T02:44:09;94916.44;;;9.69;80.88
6680;BME280;3376;42.664;23.346;2023-02-20T02:46:40;94912.53;;;9.57;82.47
6680;BME280;3376;42.664;23.346;2023-02-20T02:49:14;94917.72;;;9.57;82.10
6680;BME280;3376;42.664;23.346;2023-02-20T02:51:45;94938.28;;;9.58;82.70
6680;BME280;3376;42.664;23.346;2023-02-20T02:54:15;94924.03;;;9.46;82.35
6680;BME280;3376;42.664;23.346;2023-02-20T02:56:43;94920.63;;;9.45;83.28
6680;BME280;3376;42.664;23.346;2023-02-20T02:59:13;94924.81;;;9.38;82.68
6680;BME280;3376;42.664;23.346;2023-02-20T03:01:42;94917.06;;;9.38;85.02
6680;BME280;3376;42.664;23.346;2023-02-20T03:04:12;94916.06;;;9.39;82.82
6680;BME280;3376;42.664;23.346;2023-02-20T03:06:51;94933.56;;;9.37;85.50
6680;BME280;3376;42.664;23.346;2023-02-20T03:09:21;94951.47;;;9.39;83.19
6680;BME280;3376;42.664;23.346;2023-02-20T03:11:51;94957.00;;;9.44;82.64
6680;BME280;3376;42.664;23.346;2023-02-20T03:14:20;94925.56;;;9.15;83.12
6680;BME280;3376;42.664;23.346;2023-02-20T03:17:08;94965.84;;;9.41;82.09
6680;BME280;3376;42.664;23.346;2023-02-20T03:19:38;94954.22;;;9.37;82.90
6680;BME280;3376;42.664;23.346;2023-02-20T03:22:12;94955.34;;;9.35;83.73
6680;BME280;3376;42.664;23.346;2023-02-20T03:24:42;94976.03;;;9.35;83.39
6680;BME280;3376;42.664;23.346;2023-02-20T03:27:23;94953.84;;;9.24;83.42
6680;BME280;3376;42.664;23.346;2023-02-20T03:29:55;94963.25;;;9.33;82.45
6680;BME280;3376;42.664;23.346;2023-02-20T03:32:26;94979.09;;;9.30;82.60
6680;BME280;3376;42.664;23.346;2023-02-20T03:35:12;94990.38;;;9.29;82.38
6680;BME280;3376;42.664;23.346;2023-02-20T03:37:59;94973.84;;;9.14;83.02
6680;BME280;3376;42.664;23.346;2023-02-20T03:40:46;95009.41;;;9.20;82.26
6680;BME280;3376;42.664;23.346;2023-02-20T03:43:30;94975.50;;;9.23;83.44
6680;BME280;3376;42.664;23.346;2023-02-20T03:46:02;94975.50;;;9.23;82.81
6680;BME280;3376;42.664;23.346;2023-02-20T03:48:34;94993.88;;;9.20;83.66
6680;BME280;3376;42.664;23.346;2023-02-20T03:51:03;94992.13;;;9.21;83.13
6680;BME280;3376;42.664;23.346;2023-02-20T03:53:50;94993.44;;;9.25;83.14
6680;BME280;3376;42.664;23.346;2023-02-20T03:56:21;94999.19;;;9.11;82.68
6680;BME280;3376;42.664;23.346;2023-02-20T03:58:52;94991.75;;;9.08;83.71
6680;BME280;3376;42.664;23.346;2023-02-20T04:01:22;95005.28;;;9.02;83.15
6680;BME280;3376;42.664;23.346;2023-02-20T04:03:53;94999.16;;;9.03;83.01
6680;BME280;3376;42.664;23.346;2023-02-20T04:06:26;94977.22;;;8.81;83.12
6680;BME280;3376;42.664;23.346;2023-02-20T04:08:59;94996.91;;;9.00;82.98
6680;BME280;3376;42.664;23.346;2023-02-20T04:11:34;94950.13;;;8.52;83.52
6680;BME280;3376;42.664;23.346;2023-02-20T04:14:02;95009.44;;;8.95;81.18
6680;BME280;3376;42.664;23.346;2023-02-20T04:16:31;95009.81;;;9.00;81.86
6680;BME280;3376;42.664;23.346;2023-02-20T04:19:01;95009.75;;;8.92;81.80
6680;BME280;3376;42.664;23.346;2023-02-20T04:21:33;94744.56;;;7.32;82.95
6680;BME280;3376;42.664;23.346;2023-02-20T04:24:06;95006.28;;;9.09;81.57
6680;BME280;3376;42.664;23.346;2023-02-20T04:26:34;95010.84;;;9.15;81.51
6680;BME280;3376;42.664;23.346;2023-02-20T04:29:02;95011.50;;;9.17;79.86
6680;BME280;3376;42.664;23.346;2023-02-20T04:31:29;95003.44;;;9.20;80.76
6680;BME280;3376;42.664;23.346;2023-02-20T04:33:56;95009.56;;;9.19;79.86
6680;BME280;3376;42.664;23.346;2023-02-20T04:36:23;95014.09;;;9.17;81.77
6680;BME280;3376;42.664;23.346;2023-02-20T04:38:50;95010.53;;;9.18;81.73
6680;BME280;3376;42.664;23.346;2023-02-20T04:41:18;94963.06;;;8.85;81.17
6680;BME280;3376;42.664;23.346;2023-02-20T04:43:45;95000.63;;;9.05;82.01
6680;BME280;3376;42.664;23.346;2023-02-20T04:46:14;94997.69;;;9.00;81.53
6680;BME280;3376;42.664;23.346;2023-02-20T04:48:41;94993.16;;;8.94;82.15
6680;BME280;3376;42.664;23.346;2023-02-20T04:51:07;94982.56;;;8.80;81.31
6680;BME280;3376;42.664;23.346;2023-02-20T04:53:35;95010.47;;;8.76;80.86
6680;BME280;3376;42.664;23.346;2023-02-20T04:56:02;95028.41;;;8.78;81.72
6680;BME280;3376;42.664;23.346;2023-02-20T04:58:30;95031.59;;;8.72;79.82
6680;BME280;3376;42.664;23.346;2023-02-20T05:00:58;95019.34;;;8.74;78.90
6680;BME280;3376;42.664;23.346;2023-02-20T05:03:25;95030.69;;;8.81;78.11
6680;BME280;3376;42.664;23.346;2023-02-20T05:05:51;94917.13;;;7.94;77.32
6680;BME280;3376;42.664;23.346;2023-02-20T05:08:18;95038.09;;;8.76;77.34
6680;BME280;3376;42.664;23.346;2023-02-20T05:10:45;95036.72;;;8.64;76.91
6680;BME280;3376;42.664;23.346;2023-02-20T05:13:12;95041.56;;;8.67;78.82
6680;BME280;3376;42.664;23.346;2023-02-20T05:15:40;95031.28;;;8.49;75.69
6680;BME280;3376;42.664;23.346;2023-02-20T05:18:07;95043.66;;;8.63;75.78
6680;BME280;3376;42.664;23.346;2023-02-20T05:20:33;95053.16;;;8.63;74.71
6680;BME280;3376;42.664;23.346;2023-02-20T05:23:17;95049.56;;;8.56;75.01
6680;BME280;3376;42.664;23.346;2023-02-20T05:25:44;95039.69;;;8.51;74.39
6680;BME280;3376;42.664;23.346;2023-02-20T05:28:11;95047.63;;;8.58;74.53
6680;BME280;3376;42.664;23.346;2023-02-20T05:30:39;95059.59;;;8.59;75.03
6680;BME280;3376;42.664;23.346;2023-02-20T05:33:06;95061.50;;;8.57;77.58
6680;BME280;3376;42.664;23.346;2023-02-20T05:35:33;95040.84;;;8.57;75.34
6680;BME280;3376;42.664;23.346;2023-02-20T05:38:00;95067.91;;;8.70;74.84
6680;BME280;3376;42.664;23.346;2023-02-20T05:40:27;95089.25;;;8.98;75.16
6680;BME280;3376;42.664;23.346;2023-02-20T05:42:53;95087.69;;;9.05;73.02
6680;BME280;3376;42.664;23.346;2023-02-20T05:45:20;95071.31;;;8.96;72.94
6680;BME280;3376;42.664;23.346;2023-02-20T05:47:48;95066.66;;;9.00;73.48
6680;BME280;3376;42.664;23.346;2023-02-20T05:50:15;95078.69;;;8.91;74.77
6680;BME280;3376;42.664;23.346;2023-02-20T05:52:42;95086.09;;;9.12;74.05
6680;BME280;3376;42.664;23.346;2023-02-20T05:55:09;95075.88;;;9.02;74.65
6680;BME280;3376;42.664;23.346;2023-02-20T05:57:36;95091.00;;;9.23;75.48
6680;BME280;3376;42.664;23.346;2023-02-20T06:00:03;95087.38;;;9.41;73.68
6680;BME280;3376;42.664;23.346;2023-02-20T06:02:31;95085.03;;;9.56;73.62
6680;BME280;3376;42.664;23.346;2023-02-20T06:05:00;95026.13;;;9.34;73.19
6680;BME280;3376;42.664;23.346;2023-02-20T06:07:27;95085.94;;;9.81;72.06
6680;BME280;3376;42.664;23.346;2023-02-20T06:09:53;95097.78;;;9.91;70.57
6680;BME280;3376;42.664;23.346;2023-02-20T06:12:20;95099.09;;;9.95;70.14
6680;BME280;3376;42.664;23.346;2023-02-20T06:14:47;95101.38;;;10.06;67.73
6680;BME280;3376;42.664;23.346;2023-02-20T06:17:14;95100.44;;;10.15;65.53
6680;BME280;3376;42.664;23.346;2023-02-20T06:19:41;95096.75;;;10.18;66.64
6680;BME280;3376;42.664;23.346;2023-02-20T06:22:09;95098.03;;;10.22;64.66
6680;BME280;3376;42.664;23.346;2023-02-20T06:24:35;95084.47;;;10.28;63.36
6680;BME280;3376;42.664;23.346;2023-02-20T06:27:02;95102.47;;;10.53;64.32
6680;BME280;3376;42.664;23.346;2023-02-20T06:29:31;95116.22;;;10.78;62.62
6680;BME280;3376;42.664;23.346;2023-02-20T06:31:58;95120.75;;;11.08;61.74
6680;BME280;3376;42.664;23.346;2023-02-20T06:34:25;95118.47;;;11.13;62.80
6680;BME280;3376;42.664;23.346;2023-02-20T06:36:55;95115.22;;;11.27;60.45
6680;BME280;3376;42.664;23.346;2023-02-20T06:39:23;95115.34;;;11.50;59.55
6680;BME280;3376;42.664;23.346;2023-02-20T06:41:50;95111.38;;;11.78;56.76
6680;BME280;3376;42.664;23.346;2023-02-20T06:44:17;95073.69;;;11.35;56.12
6680;BME280;3376;42.664;23.346;2023-02-20T06:46:44;95137.06;;;11.57;56.26
6680;BME280;3376;42.664;23.346;2023-02-20T06:49:10;95114.72;;;11.32;58.95
6680;BME280;3376;42.664;23.346;2023-02-20T06:51:38;95044.09;;;11.06;57.78
6680;BME280;3376;42.664;23.346;2023-02-20T06:54:06;95135.81;;;10.64;58.89
6680;BME280;3376;42.664;23.346;2023-02-20T06:56:35;95085.59;;;10.25;59.36
6680;BME280;3376;42.664;23.346;2023-02-20T06:59:03;95115.41;;;10.45;59.60
6680;BME280;3376;42.664;23.346;2023-02-20T07:01:37;95127.88;;;10.42;60.61
6680;BME280;3376;42.664;23.346;2023-02-20T07:04:05;95124.78;;;10.46;60.21
6680;BME280;3376;42.664;23.346;2023-02-20T07:06:32;95129.38;;;10.85;58.83
6680;BME280;3376;42.664;23.346;2023-02-20T07:08:59;95127.72;;;11.16;59.03
6680;BME280;3376;42.664;23.346;2023-02-20T07:11:25;95129.53;;;11.78;55.73
6680;BME280;3376;42.664;23.346;2023-02-20T07:13:53;95115.84;;;11.92;53.90
6680;BME280;3376;42.664;23.346;2023-02-20T07:16:22;95139.00;;;12.10;51.84
6680;BME280;3376;42.664;23.346;2023-02-20T07:18:49;95151.91;;;11.87;52.06
6680;BME280;3376;42.664;23.346;2023-02-20T07:21:16;95148.44;;;12.03;50.29
6680;BME280;3376;42.664;23.346;2023-02-20T07:23:43;95156.63;;;12.75;48.50
6680;BME280;3376;42.664;23.346;2023-02-20T07:26:16;95143.91;;;13.11;47.21
6680;BME280;3376;42.664;23.346;2023-02-20T07:28:43;95135.25;;;12.88;47.22
6680;BME280;3376;42.664;23.346;2023-02-20T07:31:11;95143.41;;;12.62;46.92
6680;BME280;3376;42.664;23.346;2023-02-20T07:33:38;95153.41;;;12.73;47.27
6680;BME280;3376;42.664;23.346;2023-02-20T07:36:07;95149.94;;;12.28;47.40
6680;BME280;3376;42.664;23.346;2023-02-20T07:38:34;95160.38;;;12.20;46.85
6680;BME280;3376;42.664;23.346;2023-02-20T07:41:01;95123.53;;;12.16;47.50
6680;BME280;3376;42.664;23.346;2023-02-20T07:43:28;95143.69;;;12.14;47.54
6680;BME280;3376;42.664;23.346;2023-02-20T07:45:54;95128.28;;;11.66;47.53
6680;BME280;3376;42.664;23.346;2023-02-20T07:48:22;95155.84;;;11.59;48.28
6680;BME280;3376;42.664;23.346;2023-02-20T07:50:49;95164.44;;;11.67;47.74
6680;BME280;3376;42.664;23.346;2023-02-20T07:53:20;95170.63;;;11.66;47.83
6680;BME280;3376;42.664;23.346;2023-02-20T07:55:47;95011.88;;;10.92;47.88
6680;BME280;3376;42.664;23.346;2023-02-20T07:58:13;95173.78;;;12.31;46.63
6680;BME280;3376;42.664;23.346;2023-02-20T08:00:40;95177.88;;;12.56;45.17
6680;BME280;3376;42.664;23.346;2023-02-20T08:03:07;95160.56;;;12.71;44.67
6680;BME280;3376;42.664;23.346;2023-02-20T08:05:35;95190.78;;;12.95;44.72
6680;BME280;3376;42.664;23.346;2023-02-20T08:08:02;95190.03;;;12.86;43.46
6680;BME280;3376;42.664;23.346;2023-02-20T08:10:29;95188.41;;;13.53;43.22
6680;BME280;3376;42.664;23.346;2023-02-20T08:12:56;95188.56;;;13.52;42.71
6680;BME280;3376;42.664;23.346;2023-02-20T08:15:22;95172.44;;;13.85;42.49
6680;BME280;3376;42.664;23.346;2023-02-20T08:17:49;95107.81;;;13.74;41.29
6680;BME280;3376;42.664;23.346;2023-02-20T08:20:19;95162.09;;;14.21;40.34
6680;BME280;3376;42.664;23.346;2023-02-20T08:22:49;95200.75;;;14.82;39.25
6680;BME280;3376;42.664;23.346;2023-02-20T08:25:16;95202.00;;;15.07;39.56
6680;BME280;3376;42.664;23.346;2023-02-20T08:27:45;95188.19;;;15.13;39.25
6680;BME280;3376;42.664;23.346;2023-02-20T08:30:14;95156.25;;;14.69;40.02
6680;BME280;3376;42.664;23.346;2023-02-20T08:32:41;95191.03;;;14.41;40.24
6680;BME280;3376;42.664;23.346;2023-02-20T08:35:08;95186.72;;;14.04;40.81
6680;BME280;3376;42.664;23.346;2023-02-20T08:37:34;95161.94;;;14.23;40.86
6680;BME280;3376;42.664;23.346;2023-02-20T08:40:03;95162.28;;;14.34;40.49
6680;BME280;3376;42.664;23.346;2023-02-20T08:42:32;95190.16;;;14.48;40.16
6680;BME280;3376;42.664;23.346;2023-02-20T08:44:59;95146.66;;;14.34;40.33
6680;BME280;3376;42.664;23.346;2023-02-20T08:47:26;95128.44;;;13.76;41.10
6680;BME280;3376;42.664;23.346;2023-02-20T08:49:53;95165.78;;;13.97;41.54
6680;BME280;3376;42.664;23.346;2023-02-20T08:52:19;95191.56;;;14.22;40.25
6680;BME280;3376;42.664;23.346;2023-02-20T08:54:46;95145.88;;;13.90;40.38
6680;BME280;3376;42.664;23.346;2023-02-20T08:57:15;95162.00;;;14.14;40.90
6680;BME280;3376;42.664;23.346;2023-02-20T08:59:42;95176.84;;;14.14;40.00
6680;BME280;3376;42.664;23.346;2023-02-20T09:02:15;95183.66;;;14.15;40.32
6680;BME280;3376;42.664;23.346;2023-02-20T09:04:42;95191.38;;;14.23;40.38
6680;BME280;3376;42.664;23.346;2023-02-20T09:07:10;95177.28;;;14.17;39.64
6680;BME280;3376;42.664;23.346;2023-02-20T09:09:37;95176.22;;;14.77;38.66
6680;BME280;3376;42.664;23.346;2023-02-20T09:12:04;95150.09;;;14.56;39.08
6680;BME280;3376;42.664;23.346;2023-02-20T09:14:33;95162.31;;;14.55;39.02
6680;BME280;3376;42.664;23.346;2023-02-20T09:16:59;95115.19;;;14.21;38.22
6680;BME280;3376;42.664;23.346;2023-02-20T09:19:26;95182.97;;;14.71;37.91
6680;BME280;3376;42.664;23.346;2023-02-20T09:21:53;95168.56;;;14.75;38.69
6680;BME280;3376;42.664;23.346;2023-02-20T09:24:20;95170.69;;;14.65;37.62
6680;BME280;3376;42.664;23.346;2023-02-20T09:26:47;95138.16;;;14.47;38.08
6680;BME280;3376;42.664;23.346;2023-02-20T09:29:14;95178.50;;;14.65;38.13
6680;BME280;3376;42.664;23.346;2023-02-20T09:31:42;95191.22;;;14.89;37.63
6680;BME280;3376;42.664;23.346;2023-02-20T09:34:09;95171.00;;;15.19;36.73
6680;BME280;3376;42.664;23.346;2023-02-20T09:36:35;95078.16;;;14.61;37.32
6680;BME280;3376;42.664;23.346;2023-02-20T09:39:02;95182.94;;;14.86;37.86
6680;BME280;3376;42.664;23.346;2023-02-20T09:41:44;95170.94;;;14.91;37.82
6680;BME280;3376;42.664;23.346;2023-02-20T09:44:18;95174.16;;;14.93;38.44
6680;BME280;3376;42.664;23.346;2023-02-20T09:46:52;95168.50;;;14.90;38.25
6680;BME280;3376;42.664;23.346;2023-02-20T09:49:23;95167.81;;;14.81;39.20
6680;BME280;3376;42.664;23.346;2023-02-20T09:51:55;95137.22;;;14.69;38.74
6680;BME280;3376;42.664;23.346;2023-02-20T09:54:26;95153.03;;;14.32;39.30
6680;BME280;3376;42.664;23.346;2023-02-20T09:56:56;95182.50;;;14.82;38.74
6680;BME280;3376;42.664;23.346;2023-02-20T09:59:27;95175.22;;;14.78;38.40
6680;BME280;3376;42.664;23.346;2023-02-20T10:02:01;94998.69;;;13.65;38.39
6680;BME280;3376;42.664;23.346;2023-02-20T10:04:33;95174.44;;;14.63;38.51
6680;BME280;3376;42.664;23.346;2023-02-20T10:07:08;95176.09;;;14.49;38.63
6680;BME280;3376;42.664;23.346;2023-02-20T10:09:38;95188.94;;;14.65;39.02
6680;BME280;3376;42.664;23.346;2023-02-20T10:12:11;95178.56;;;14.72;38.54
6680;BME280;3376;42.664;23.346;2023-02-20T10:14:51;95164.56;;;15.15;37.04
6680;BME280;3376;42.664;23.346;2023-02-20T10:17:30;95172.59;;;15.62;35.47
6680;BME280;3376;42.664;23.346;2023-02-20T10:20:03;95156.94;;;15.41;35.22
6680;BME280;3376;42.664;23.346;2023-02-20T10:22:40;95155.66;;;15.30;34.86
6680;BME280;3376;42.664;23.346;2023-02-20T10:25:14;95120.19;;;15.15;34.74
6680;BME280;3376;42.664;23.346;2023-02-20T10:27:51;95157.50;;;15.37;34.37
6680;BME280;3376;42.664;23.346;2023-02-20T10:30:23;95153.50;;;15.62;35.01
6680;BME280;3376;42.664;23.346;2023-02-20T10:32:57;95125.25;;;15.72;35.09
6680;BME280;3376;42.664;23.346;2023-02-20T10:35:34;95141.47;;;15.67;34.61
6680;BME280;3376;42.664;23.346;2023-02-20T10:38:05;95144.34;;;15.79;34.88
6680;BME280;3376;42.664;23.346;2023-02-20T10:40:36;95133.31;;;15.49;33.87
6680;BME280;3376;42.664;23.346;2023-02-20T10:43:11;95129.75;;;15.57;34.58
6680;BME280;3376;42.664;23.346;2023-02-20T10:45:46;95153.50;;;15.62;33.99
6680;BME280;3376;42.664;23.346;2023-02-20T10:48:16;95152.06;;;15.87;34.36
6680;BME280;3376;42.664;23.346;2023-02-20T10:50:47;95128.19;;;15.62;34.14
6680;BME280;3376;42.664;23.346;2023-02-20T10:53:24;95125.59;;;15.69;33.83
6680;BME280;3376;42.664;23.346;2023-02-20T10:55:57;95136.63;;;15.64;34.89
6680;BME280;3376;42.664;23.346;2023-02-20T10:58:30;95136.88;;;15.42;33.35
6680;BME280;3376;42.664;23.346;2023-02-20T11:01:02;95127.47;;;15.75;33.61
6680;BME280;3376;42.664;23.346;2023-02-20T11:03:39;95117.41;;;15.72;33.76
6680;BME280;3376;42.664;23.346;2023-02-20T11:06:08;95106.56;;;15.75;33.25
6680;BME280;3376;42.664;23.346;2023-02-20T11:08:37;95108.13;;;16.10;33.49
6680;BME280;3376;42.664;23.346;2023-02-20T11:14:01;95102.63;;;15.51;32.79
6680;BME280;3376;42.664;23.346;2023-02-20T11:16:36;95106.56;;;15.75;34.15
6680;BME280;3376;42.664;23.346;2023-02-20T11:19:12;95107.19;;;16.17;33.91
6680;BME280;3376;42.664;23.346;2023-02-20T11:21:45;95088.72;;;16.32;33.12
6680;BME280;3376;42.664;23.346;2023-02-20T11:24:30;95087.50;;;16.28;32.55
6680;BME280;3376;42.664;23.346;2023-02-20T11:27:00;95098.06;;;16.54;33.54
6680;BME280;3376;42.664;23.346;2023-02-20T11:29:33;95114.56;;;16.61;32.91
6680;BME280;3376;42.664;23.346;2023-02-20T11:32:25;95105.72;;;16.56;31.74
6680;BME280;3376;42.664;23.346;2023-02-20T11:35:13;95099.22;;;16.38;32.73
6680;BME280;3376;42.664;23.346;2023-02-20T11:37:41;95110.16;;;16.62;33.52
6680;BME280;3376;42.664;23.346;2023-02-20T11:40:14;95098.50;;;16.64;33.91
6680;BME280;3376;42.664;23.346;2023-02-20T11:42:43;95104.56;;;16.71;34.95
6680;BME280;3376;42.664;23.346;2023-02-20T11:45:15;95103.38;;;16.93;32.83
6680;BME280;3376;42.664;23.346;2023-02-20T11:47:42;95095.31;;;16.88;33.39
6680;BME280;3376;42.664;23.346;2023-02-20T11:50:16;95051.00;;;16.61;32.78
6680;BME280;3376;42.664;23.346;2023-02-20T11:52:57;94520.63;;;13.17;33.34
6680;BME280;3376;42.664;23.346;2023-02-20T11:55:26;95074.56;;;16.61;32.97
6680;BME280;3376;42.664;23.346;2023-02-20T11:57:54;95095.50;;;16.74;33.00
6680;BME280;3376;42.664;23.346;2023-02-20T12:00:22;95066.50;;;16.56;33.57
6680;BME280;3376;42.664;23.346;2023-02-20T12:02:55;95082.56;;;16.46;33.76
6680;BME280;3376;42.664;23.346;2023-02-20T12:05:37;95091.03;;;16.01;34.31
6680;BME280;3376;42.664;23.346;2023-02-20T12:08:19;95090.34;;;15.92;33.72
6680;BME280;3376;42.664;23.346;2023-02-20T12:10:52;95083.94;;;15.95;34.77
6680;BME280;3376;42.664;23.346;2023-02-20T12:13:20;95089.84;;;16.10;33.94
6680;BME280;3376;42.664;23.346;2023-02-20T12:15:51;95093.50;;;16.22;33.00
6680;BME280;3376;42.664;23.346;2023-02-20T12:18:41;95072.75;;;16.07;32.87
6680;BME280;3376;42.664;23.346;2023-02-20T12:21:27;95074.69;;;16.46;33.42
6680;BME280;3376;42.664;23.346;2023-02-20T12:24:08;95088.81;;;16.58;32.64
6680;BME280;3376;42.664;23.346;2023-02-20T12:26:49;95087.09;;;16.24;32.98
6680;BME280;3376;42.664;23.346;2023-02-20T12:29:26;95092.97;;;16.33;33.27
6680;BME280;3376;42.664;23.346;2023-02-20T12:32:05;95106.31;;;16.51;32.63
6680;BME280;3376;42.664;23.346;2023-02-20T12:34:54;95085.09;;;16.33;32.31
6680;BME280;3376;42.664;23.346;2023-02-20T12:37:32;95091.63;;;16.03;33.36
6680;BME280;3376;42.664;23.346;2023-02-20T12:40:19;95112.31;;;15.98;33.85
6680;BME280;3376;42.664;23.346;2023-02-20T12:42:58;95105.53;;;16.16;33.63
6680;BME280;3376;42.664;23.346;2023-02-20T12:45:35;95101.19;;;15.89;34.33
6680;BME280;3376;42.664;23.346;2023-02-20T12:48:16;95038.25;;;15.78;33.59
6680;BME280;3376;42.664;23.346;2023-02-20T12:51:00;95072.03;;;15.86;34.59
6680;BME280;3376;42.664;23.346;2023-02-20T12:53:41;95070.84;;;15.82;34.52
6680;BME280;3376;42.664;23.346;2023-02-20T12:56:22;95074.44;;;15.81;34.05
6680;BME280;3376;42.664;23.346;2023-02-20T12:58:57;95077.78;;;16.09;33.77
6680;BME280;3376;42.664;23.346;2023-02-20T13:01:26;95054.44;;;16.01;34.36
6680;BME280;3376;42.664;23.346;2023-02-20T13:03:59;95056.56;;;16.44;33.01
6680;BME280;3376;42.664;23.346;2023-02-20T13:06:34;95070.13;;;16.01;33.10
6680;BME280;3376;42.664;23.346;2023-02-20T13:09:15;95084.28;;;16.26;32.39
6680;BME280;3376;42.664;23.346;2023-02-20T13:11:46;95095.16;;;16.36;32.84
6680;BME280;3376;42.664;23.346;2023-02-20T13:14:27;95097.78;;;16.36;33.08
6680;BME280;3376;42.664;23.346;2023-02-20T13:17:05;95090.22;;;16.00;34.32
6680;BME280;3376;42.664;23.346;2023-02-20T13:19:37;95078.88;;;15.80;33.58
6680;BME280;3376;42.664;23.346;2023-02-20T13:22:05;95108.59;;;15.79;34.08
6680;BME280;3376;42.664;23.346;2023-02-20T13:24:34;95095.59;;;15.92;34.31
6680;BME280;3376;42.664;23.346;2023-02-20T13:27:02;95062.59;;;15.85;34.82
6680;BME280;3376;42.664;23.346;2023-02-20T13:29:35;95084.47;;;15.84;34.52
6680;BME280;3376;42.664;23.346;2023-02-20T13:32:21;95095.34;;;15.81;34.01
6680;BME280;3376;42.664;23.346;2023-02-20T13:34:49;95096.69;;;16.11;34.13
6680;BME280;3376;42.664;23.346;2023-02-20T13:37:51;95107.94;;;16.11;34.00
6680;BME280;3376;42.664;23.346;2023-02-20T13:40:37;95105.94;;;15.73;33.75
6680;BME280;3376;42.664;23.346;2023-02-20T13:43:26;95117.88;;;15.82;34.55
6680;BME280;3376;42.664;23.346;2023-02-20T13:46:15;95126.25;;;15.77;34.83